Terminal Aerodrome Forecast
Issued by NWS

Home | Current Version | Previous Version | Text Only | Print | Product List | Glossary On
Versions: 1 2 3 4 5 6 7 8 9 10 11 12 13 14 15 16 17 18 19 20 21
000
FTUS46 KLOX 181700
TAFSBP
TAF
KSBP 181731Z 1818/1918 00000KT P6SM BKN016 BKN022 OVC030
     FM181900 26006KT P6SM SCT016 BKN022 BKN035
     FM182000 29012KT P6SM BKN030
     FM182100 30014KT P6SM SCT030
     FM190200 30007KT P6SM SCT020
     FM190400 VRB03KT P6SM OVC012=

USA.gov is the U.S. government's official web portal to all federal, state and local government web resources and services.